Time;durP1;ratioP1;P1;durP2;ratioP2;P2;SDS_P1;SDS_P2;PMS_P1;PMS_P2;Temp;Humidity;BMP_temperature;BMP_pressure;BME280_temperature;BME280_humidity;BME280_pressure;Samples;Min_cycle;Max_cycle;Signal;HPM_P1;HPM_P2
2022/06/23 00:01:41;;;;;;;5.82;4.97;;;15.10;99.90;;;;;;5114487;28;20500;-77
2022/06/23 00:04:11;;;;;;;7.72;5.70;;;15.10;99.90;;;;;;5114572;28;20044;-77
2022/06/23 00:06:42;;;;;;;7.43;5.65;;;15.10;99.90;;;;;;5114200;28;20149;-77
2022/06/23 00:09:33;;;;;;;8.65;5.68;;;15.00;99.90;;;;;;5097265;28;20467;-77
2022/06/23 00:12:00;;;;;;;7.75;5.32;;;15.10;99.90;;;;;;5114258;28;20124;-77
2022/06/23 00:14:27;;;;;;;5.60;4.70;;;15.00;99.90;;;;;;5114445;28;20043;-77
2022/06/23 00:16:52;;;;;;;8.77;5.72;;;15.00;99.90;;;;;;5113925;28;20235;-77
2022/06/23 00:19:18;;;;;;;5.82;4.65;;;15.10;99.90;;;;;;5114288;28;20588;-77
2022/06/23 00:21:48;;;;;;;5.82;5.10;;;15.00;99.90;;;;;;5114134;28;20040;-77
2022/06/23 00:24:19;;;;;;;6.15;5.30;;;14.90;99.90;;;;;;5114057;28;20134;-77
2022/06/23 00:26:46;;;;;;;7.15;5.47;;;14.90;99.90;;;;;;5113862;28;20623;-78
2022/06/23 00:29:16;;;;;;;8.45;5.57;;;14.90;99.90;;;;;;5097184;28;20032;-78
2022/06/23 00:32:02;;;;;;;8.48;5.68;;;14.90;99.90;;;;;;5114135;28;20492;-78
2022/06/23 00:34:34;;;;;;;6.97;5.85;;;14.90;99.90;;;;;;5113984;28;20153;-78
2022/06/23 00:37:07;;;;;;;8.32;6.07;;;14.80;99.90;;;;;;5113686;28;20048;-77
2022/06/23 00:39:34;;;;;;;6.30;5.25;;;14.90;99.90;;;;;;5113729;28;20035;-77
2022/06/23 00:42:02;;;;;;;8.90;6.65;;;14.90;99.90;;;;;;5114103;28;20047;-78
2022/06/23 00:45:00;;;;;;;6.85;5.57;;;14.80;99.90;;;;;;5113761;28;20457;-77
2022/06/23 00:47:43;;;;;;;9.00;5.47;;;14.80;99.90;;;;;;5079019;28;20139;-77
2022/06/23 00:50:30;;;;;;;6.85;5.38;;;14.80;99.90;;;;;;5096706;28;20069;-77
2022/06/23 00:53:12;;;;;;;10.20;7.07;;;14.70;99.90;;;;;;5113629;28;20198;-77
2022/06/23 00:56:07;;;;;;;8.75;6.65;;;14.70;99.90;;;;;;5113552;28;20211;-77
2022/06/23 00:58:42;;;;;;;7.82;6.25;;;14.70;99.90;;;;;;5113622;28;20043;-77
2022/06/23 01:01:13;;;;;;;8.30;6.60;;;14.70;99.90;;;;;;5113608;28;20062;-77
2022/06/23 01:03:50;;;;;;;8.15;6.25;;;14.70;99.90;;;;;;5096448;28;20107;-77
2022/06/23 01:06:27;;;;;;;9.48;6.57;;;14.70;99.90;;;;;;5112908;28;20122;-77
2022/06/23 01:09:20;;;;;;;9.85;7.45;;;14.70;99.90;;;;;;5112894;28;20051;-77
2022/06/23 01:12:00;;;;;;;;;;;14.70;99.90;;;;;;5062274;28;20050;-77
2022/06/23 01:14:45;;;;;;;7.70;6.47;;;14.60;99.90;;;;;;5113258;28;19923;-77
2022/06/23 01:17:16;;;;;;;7.75;5.93;;;14.60;99.90;;;;;;5113355;28;20188;-77
2022/06/23 01:20:04;;;;;;;11.52;7.05;;;14.60;99.90;;;;;;5096393;28;20079;-77
2022/06/23 01:22:50;;;;;;;9.15;6.57;;;14.60;99.90;;;;;;5089785;22;20118;-70
2022/06/23 01:25:27;;;;;;;9.57;7.18;;;14.70;99.90;;;;;;5072864;28;20482;-70
2022/06/23 01:28:15;;;;;;;8.95;6.95;;;14.60;99.90;;;;;;5073766;28;20379;-69
2022/06/23 01:30:58;;;;;;;12.48;7.53;;;14.60;99.90;;;;;;5063801;28;20070;-69
2022/06/23 01:33:34;;;;;;;8.38;6.25;;;14.50;99.90;;;;;;5053548;28;20445;-69
2022/06/23 01:36:06;;;;;;;8.85;6.75;;;14.60;99.90;;;;;;5053250;28;20047;-70
2022/06/23 01:38:46;;;;;;;9.55;7.97;;;14.50;99.90;;;;;;5053562;28;20482;-69
2022/06/23 01:41:24;;;;;;;10.15;7.70;;;14.50;99.90;;;;;;5053386;28;20041;-69
2022/06/23 01:43:59;;;;;;;9.48;7.22;;;14.50;99.90;;;;;;5053175;28;20098;-69
2022/06/23 01:46:31;;;;;;;9.98;8.20;;;14.50;99.90;;;;;;5053202;28;20041;-70
2022/06/23 01:49:18;;;;;;;10.93;8.77;;;14.50;99.90;;;;;;5053422;28;20038;-70
2022/06/23 01:51:52;;;;;;;13.27;7.82;;;14.40;99.90;;;;;;5051846;28;20078;-69
2022/06/23 01:54:20;;;;;;;9.10;7.38;;;14.40;99.90;;;;;;5052988;28;20172;-69
2022/06/23 01:57:07;;;;;;;10.13;7.47;;;14.40;99.90;;;;;;5052968;28;20075;-70
2022/06/23 01:59:40;;;;;;;11.27;7.63;;;14.50;99.90;;;;;;5053153;28;20044;-69
2022/06/23 02:02:42;;;;;;;11.50;8.15;;;14.50;99.90;;;;;;5052810;28;20051;-69
2022/06/23 02:05:30;;;;;;;11.02;7.72;;;14.40;99.90;;;;;;5052724;28;20106;-70
2022/06/23 02:08:23;;;;;;;9.30;7.20;;;14.40;99.90;;;;;;5052968;28;20043;-69
2022/06/23 02:10:58;;;;;;;11.82;8.90;;;14.30;99.90;;;;;;5052686;28;20033;-70
2022/06/23 02:13:33;;;;;;;12.18;7.57;;;14.40;99.90;;;;;;5051571;28;20475;-70
2022/06/23 02:16:07;;;;;;;10.95;7.78;;;14.30;99.90;;;;;;5052536;28;20052;-69
2022/06/23 02:18:48;;;;;;;11.30;8.00;;;14.40;99.90;;;;;;5052487;28;20045;-70
2022/06/23 02:21:17;;;;;;;10.40;7.75;;;14.30;99.90;;;;;;5052311;28;20041;-69
2022/06/23 02:23:54;;;;;;;10.68;8.20;;;14.30;99.90;;;;;;5052669;28;20052;-69
2022/06/23 02:26:30;;;;;;;12.27;8.75;;;14.30;99.90;;;;;;5050863;28;20422;-69
2022/06/23 02:29:42;;;;;;;11.38;8.40;;;14.30;99.90;;;;;;5052534;28;20048;-69
2022/06/23 02:32:25;;;;;;;12.82;8.18;;;14.30;99.90;;;;;;4974676;28;20399;-69
2022/06/23 02:35:16;;;;;;;12.98;8.73;;;14.30;99.90;;;;;;5049607;28;20056;-70
2022/06/23 02:37:44;;;;;;;13.70;9.15;;;14.20;99.90;;;;;;5052266;28;20040;-69
2022/06/23 02:40:37;;;;;;;12.05;8.65;;;14.20;99.90;;;;;;5052119;28;20037;-69
2022/06/23 02:43:10;;;;;;;13.38;9.00;;;14.10;99.90;;;;;;5052082;28;20043;-69
2022/06/23 02:46:08;;;;;;;12.40;9.03;;;14.20;99.90;;;;;;5051843;28;20099;-70
2022/06/23 02:48:46;;;;;;;13.00;9.13;;;14.10;99.90;;;;;;5052062;28;20049;-69
2022/06/23 02:51:17;;;;;;;15.20;9.40;;;14.10;99.90;;;;;;5052207;28;20072;-69
2022/06/23 02:54:09;;;;;;;14.93;10.00;;;14.00;99.90;;;;;;5051939;28;20507;-69
2022/06/23 02:57:08;;;;;;;13.98;9.73;;;13.90;99.90;;;;;;5051768;28;20041;-69
2022/06/23 03:00:09;;;;;;;13.73;9.18;;;13.90;99.90;;;;;;5052176;28;20116;-68
2022/06/23 03:02:46;;;;;;;12.40;9.05;;;14.00;99.90;;;;;;5051882;28;20099;-69
2022/06/23 03:05:23;;;;;;;13.23;9.07;;;14.00;99.90;;;;;;5050165;28;20411;-70
2022/06/23 03:08:03;;;;;;;12.98;9.70;;;14.00;99.90;;;;;;5051982;28;20045;-70
2022/06/23 03:10:48;;;;;;;14.43;9.50;;;13.90;99.90;;;;;;5050785;28;20114;-69
2022/06/23 03:13:25;;;;;;;13.18;9.80;;;14.00;99.90;;;;;;5051841;28;20039;-69
2022/06/23 03:16:13;;;;;;;13.70;10.07;;;13.90;99.90;;;;;;5051614;28;20047;-69
2022/06/23 03:18:53;;;;;;;13.38;9.10;;;13.90;99.90;;;;;;5051782;28;20087;-69
2022/06/23 03:21:27;;;;;;;17.20;10.13;;;13.90;99.90;;;;;;5050176;28;20041;-70
2022/06/23 03:24:03;;;;;;;15.90;9.70;;;13.80;99.90;;;;;;5051543;28;20056;-69
2022/06/23 03:26:39;;;;;;;12.52;8.93;;;13.80;99.90;;;;;;5051555;28;20040;-69
2022/06/23 03:29:26;;;;;;;16.08;10.95;;;13.90;99.90;;;;;;5051635;28;20033;-69
2022/06/23 03:32:15;;;;;;;12.90;9.93;;;13.90;99.90;;;;;;5056529;28;20195;-69
2022/06/23 03:34:54;;;;;;;15.23;8.63;;;13.90;99.90;;;;;;5047101;28;20052;-70
2022/06/23 03:37:41;;;;;;;14.55;8.63;;;13.80;99.90;;;;;;5058033;28;20167;-70
2022/06/23 03:43:12;;;;;;;16.00;10.88;;;13.80;99.90;;;;;;5058313;28;20470;-69
2022/06/23 03:45:54;;;;;;;16.25;9.38;;;13.90;99.90;;;;;;5041095;28;20103;-70
2022/06/23 03:48:30;;;;;;;15.75;10.25;;;13.90;99.90;;;;;;5058342;28;20041;-69
2022/06/23 03:51:02;;;;;;;13.73;10.35;;;13.90;99.90;;;;;;5057975;28;20490;-69
2022/06/23 03:53:48;;;;;;;16.38;10.48;;;13.90;99.90;;;;;;5058421;28;20045;-69
2022/06/23 03:56:25;;;;;;;14.23;9.63;;;14.00;99.90;;;;;;5057542;28;20051;-69
2022/06/23 03:59:13;;;;;;;14.98;9.68;;;13.90;99.90;;;;;;5058080;28;20041;-69
2022/06/23 04:01:42;;;;;;;13.48;9.70;;;14.00;99.90;;;;;;5058112;28;20518;-69
2022/06/23 04:04:41;;;;;;;17.98;10.05;;;14.00;99.90;;;;;;5058115;28;20045;-69
2022/06/23 04:07:28;;;;;;;14.40;10.05;;;14.10;99.90;;;;;;5053015;28;20045;-69
2022/06/23 04:10:07;;;;;;;15.73;10.23;;;14.10;99.90;;;;;;5058362;28;20041;-69
2022/06/23 04:12:36;;;;;;;15.68;10.63;;;14.10;99.90;;;;;;5057800;28;20041;-69
2022/06/23 04:15:09;;;;;;;15.23;10.18;;;14.10;99.90;;;;;;5057476;28;20052;-69
2022/06/23 04:17:51;;;;;;;18.10;10.43;;;14.10;99.90;;;;;;5057901;28;20037;-69
2022/06/23 04:20:29;;;;;;;14.70;9.82;;;14.20;99.90;;;;;;5057645;28;20077;-69
2022/06/23 04:23:00;;;;;;;15.82;9.88;;;14.20;99.90;;;;;;5056378;28;20063;-69
2022/06/23 04:25:48;;;;;;;12.77;9.20;;;14.20;99.90;;;;;;5057269;28;20452;-69
2022/06/23 04:28:30;;;;;;;14.27;10.07;;;14.20;99.90;;;;;;5056549;28;20073;-69
2022/06/23 04:30:57;;;;;;;14.88;10.35;;;14.30;99.90;;;;;;5056278;28;20044;-70
2022/06/23 04:33:25;;;;;;;13.60;10.10;;;14.30;99.90;;;;;;5057869;28;20037;-70
2022/06/23 04:35:58;;;;;;;16.13;11.27;;;14.40;99.90;;;;;;5055981;28;20044;-70
2022/06/23 04:38:46;;;;;;;14.85;9.05;;;14.50;99.90;;;;;;5057745;28;20041;-70
2022/06/23 04:41:27;;;;;;;13.05;9.40;;;14.60;99.90;;;;;;5056922;28;20102;-70
2022/06/23 04:44:01;;;;;;;15.23;9.60;;;14.60;99.90;;;;;;5052935;28;20041;-70
2022/06/23 04:46:41;;;;;;;13.50;9.85;;;14.80;99.90;;;;;;5054125;28;20397;-70
2022/06/23 04:49:15;;;;;;;12.77;9.32;;;14.90;99.90;;;;;;5054328;28;20048;-70
2022/06/23 04:52:13;;;;;;;16.35;10.00;;;15.20;99.90;;;;;;5053212;28;20056;-70
2022/06/23 04:55:13;;;;;;;13.60;9.60;;;15.30;99.90;;;;;;5048399;28;20057;-70
2022/06/23 04:57:59;;;;;;;13.75;9.10;;;15.40;99.90;;;;;;5054233;28;20056;-70
2022/06/23 05:00:46;;;;;;;13.02;9.27;;;15.60;99.90;;;;;;5053561;28;20048;-70
2022/06/23 05:03:20;;;;;;;12.65;9.88;;;15.90;99.90;;;;;;5052831;28;20078;-70
2022/06/23 05:05:54;;;;;;;13.88;9.50;;;16.10;99.90;;;;;;5053628;28;20048;-70
2022/06/23 05:08:27;;;;;;;12.30;9.05;;;16.40;99.90;;;;;;5052678;28;20049;-70
2022/06/23 05:11:06;;;;;;;12.57;8.98;;;16.70;99.90;;;;;;5054038;28;20041;-70
2022/06/23 05:13:48;;;;;;;14.10;9.40;;;17.00;99.90;;;;;;5053941;28;20063;-70
2022/06/23 05:16:22;;;;;;;13.48;9.00;;;17.30;99.90;;;;;;5052503;28;20072;-70
2022/06/23 05:18:51;;;;;;;11.82;8.82;;;17.50;99.90;;;;;;5052482;28;20549;-71
2022/06/23 05:21:24;;;;;;;13.32;9.45;;;17.70;99.90;;;;;;5052609;28;20394;-70
2022/06/23 05:24:06;;;;;;;11.98;8.68;;;17.90;99.90;;;;;;5052323;28;20592;-70
2022/06/23 05:26:39;;;;;;;11.88;9.45;;;18.20;99.90;;;;;;5052343;28;20452;-69
2022/06/23 05:29:21;;;;;;;13.13;9.75;;;18.30;99.90;;;;;;5053580;28;20073;-71
2022/06/23 05:31:51;;;;;;;12.48;9.07;;;18.30;99.90;;;;;;5052225;28;20040;-70
2022/06/23 05:34:22;;;;;;;12.02;8.75;;;18.50;99.90;;;;;;5053573;28;20033;-70
2022/06/23 05:36:56;;;;;;;14.65;10.73;;;18.70;99.90;;;;;;5053666;28;20049;-70
2022/06/23 05:39:29;;;;;;;11.80;8.23;;;18.70;99.90;;;;;;5053280;28;20048;-70
2022/06/23 05:41:59;;;;;;;10.32;8.65;;;18.90;99.90;;;;;;5053550;28;20090;-70
2022/06/23 05:44:32;;;;;;;13.95;9.43;;;19.10;99.90;;;;;;5053448;28;20033;-70
2022/06/23 05:47:00;;;;;;;15.30;9.35;;;19.30;99.90;;;;;;5052989;28;20494;-70
2022/06/23 05:49:34;;;;;;;11.63;8.25;;;19.50;99.90;;;;;;5053180;28;20433;-70
2022/06/23 05:52:02;;;;;;;;;;;19.50;99.90;;;;;;5053593;28;20106;-70
2022/06/23 05:54:53;;;;;;;11.68;8.82;;;19.20;99.90;;;;;;5053059;28;19923;-70
2022/06/23 05:57:45;;;;;;;12.00;9.02;;;19.60;99.90;;;;;;5053175;28;20037;-70
2022/06/23 06:00:27;;;;;;;14.00;9.68;;;19.80;99.90;;;;;;5053003;28;20037;-70
2022/06/23 06:03:11;;;;;;;12.30;8.93;;;19.90;99.90;;;;;;5053064;28;20051;-70
2022/06/23 06:05:41;;;;;;;12.73;8.55;;;20.00;99.90;;;;;;5051356;28;20048;-70
2022/06/23 06:09:35;;;;;;;10.95;9.15;;;20.10;99.90;;;;;;5052941;28;20044;-70
2022/06/23 06:11:23;;;;;;;12.43;8.75;;;20.10;99.90;;;;;;5052537;28;20072;-70
2022/06/23 06:13:49;;;;;;;13.32;9.55;;;20.30;99.90;;;;;;5052746;28;20035;-70
2022/06/23 06:16:15;;;;;;;11.23;8.68;;;20.50;99.90;;;;;;5052448;28;20537;-70
2022/06/23 06:18:43;;;;;;;12.10;8.00;;;20.70;99.90;;;;;;5052606;28;20047;-72
2022/06/23 06:21:12;;;;;;;11.63;8.27;;;20.80;99.90;;;;;;5051266;28;20091;-71
2022/06/23 06:23:51;;;;;;;9.98;7.80;;;21.10;99.90;;;;;;5052654;28;20051;-70
2022/06/23 06:26:20;;;;;;;12.32;7.85;;;21.30;99.90;;;;;;5050952;28;20059;-72
2022/06/23 06:28:46;;;;;;;12.45;9.30;;;21.40;99.90;;;;;;5051125;28;20088;-70
2022/06/23 06:31:28;;;;;;;14.20;8.95;;;21.50;99.90;;;;;;5052852;28;20068;-70
2022/06/23 06:34:17;;;;;;;10.25;7.78;;;21.60;99.10;;;;;;5051093;28;20119;-71
2022/06/23 06:36:46;;;;;;;10.27;7.63;;;21.60;99.40;;;;;;5052036;28;20436;-70
2022/06/23 06:39:24;;;;;;;11.18;8.48;;;21.80;99.30;;;;;;5050915;28;20090;-71
2022/06/23 06:42:06;;;;;;;9.68;7.90;;;22.00;98.50;;;;;;5052034;28;20112;-70
2022/06/23 06:44:34;;;;;;;10.77;7.63;;;22.00;97.90;;;;;;5052267;28;20037;-70
2022/06/23 06:47:00;;;;;;;10.55;7.30;;;21.80;97.80;;;;;;5051690;28;20464;-71
2022/06/23 06:49:29;;;;;;;12.23;7.45;;;21.90;97.30;;;;;;5050839;28;20047;-70
2022/06/23 06:51:55;;;;;;;9.25;7.07;;;22.10;97.40;;;;;;5050654;28;20452;-72
2022/06/23 06:54:41;;;;;;;10.65;7.47;;;22.30;97.10;;;;;;5051914;28;20103;-71
2022/06/23 06:57:18;;;;;;;11.52;8.20;;;22.60;96.60;;;;;;5051356;28;20049;-70
2022/06/23 07:00:08;;;;;;;10.68;7.45;;;22.70;95.90;;;;;;5051700;28;20037;-71
2022/06/23 07:02:42;;;;;;;11.30;7.15;;;22.50;95.70;;;;;;5031619;28;20087;-70
2022/06/23 07:05:38;;;;;;;11.93;7.53;;;22.60;95.10;;;;;;5031156;28;20077;-71
2022/06/23 07:08:15;;;;;;;9.57;6.25;;;22.80;94.90;;;;;;5032027;28;20095;-71
2022/06/23 07:11:03;;;;;;;10.82;7.80;;;22.90;95.10;;;;;;5031941;28;20033;-70
2022/06/23 07:13:38;;;;;;;13.95;7.90;;;23.00;94.20;;;;;;5031869;28;20499;-70
2022/06/23 07:16:16;;;;;;;9.60;6.72;;;23.30;94.30;;;;;;5031617;28;20044;-71
2022/06/23 07:19:26;;;;;;;8.55;7.05;;;23.40;93.50;;;;;;5031878;28;20034;-71
2022/06/23 07:22:16;;;;;;;13.10;6.43;;;23.40;93.50;;;;;;5057032;22;20040;-74
2022/06/23 07:25:17;;;;;;;8.68;6.72;;;23.90;92.20;;;;;;5092138;28;20079;-75
2022/06/23 07:27:55;;;;;;;9.90;7.10;;;23.80;91.70;;;;;;5078918;28;20056;-75
2022/06/23 07:30:47;;;;;;;10.82;7.30;;;23.90;91.80;;;;;;5091139;28;20040;-74
2022/06/23 07:33:25;;;;;;;9.68;7.53;;;23.90;91.40;;;;;;5055859;28;20048;-74
2022/06/23 07:36:13;;;;;;;7.68;6.63;;;23.90;91.10;;;;;;5091964;28;20050;-73
2022/06/23 07:38:53;;;;;;;10.40;8.02;;;24.20;91.80;;;;;;5092772;28;20072;-75
2022/06/23 07:41:30;;;;;;;10.90;7.97;;;24.10;90.50;;;;;;5093563;28;20040;-74
2022/06/23 07:44:21;;;;;;;9.60;7.38;;;24.40;89.80;;;;;;5083496;28;20398;-75
2022/06/23 07:46:47;;;;;;;9.13;6.80;;;24.60;90.20;;;;;;5072007;28;20036;-74
2022/06/23 07:49:13;;;;;;;7.53;6.13;;;24.90;87.80;;;;;;5072638;28;20037;-74
2022/06/23 07:51:40;;;;;;;9.32;7.00;;;25.00;87.30;;;;;;5073483;28;20489;-75
2022/06/23 07:54:07;;;;;;;8.70;6.82;;;24.60;85.90;;;;;;5072948;28;20044;-74
2022/06/23 07:56:36;;;;;;;10.25;7.07;;;25.10;84.30;;;;;;5072385;28;20041;-74
2022/06/23 07:59:11;;;;;;;10.75;6.72;;;25.20;83.30;;;;;;5072431;28;20041;-74
2022/06/23 08:02:00;;;;;;;11.60;5.93;;;25.40;83.10;;;;;;5071616;28;20067;-75
2022/06/23 08:04:46;;;;;;;10.50;6.13;;;25.30;80.70;;;;;;5071260;28;20132;-74
2022/06/23 08:07:12;;;;;;;13.70;7.03;;;25.20;82.20;;;;;;5070786;28;20051;-73
2022/06/23 08:09:48;;;;;;;8.13;6.38;;;25.20;81.20;;;;;;5071424;28;20086;-74
2022/06/23 08:18:04;;;;;;;10.23;6.55;;;25.70;78.70;;;;;;5074810;28;20044;-73
2022/06/23 08:20:33;;;;;;;7.20;6.43;;;25.80;77.10;;;;;;5075333;28;20036;-73
2022/06/23 08:23:01;;;;;;;7.65;6.82;;;25.50;77.80;;;;;;5074847;28;20051;-74
2022/06/23 08:25:28;;;;;;;9.30;6.97;;;25.70;77.30;;;;;;5064465;28;20512;-75
2022/06/23 08:27:55;;;;;;;6.50;5.25;;;25.80;76.50;;;;;;5093807;28;20484;-75
2022/06/23 08:30:22;;;;;;;8.02;6.35;;;26.00;76.00;;;;;;5093825;28;20061;-74
2022/06/23 08:32:51;;;;;;;9.68;6.82;;;26.10;74.80;;;;;;5093678;28;20078;-75
2022/06/23 08:35:27;;;;;;;7.97;6.35;;;26.10;73.70;;;;;;5093476;28;20245;-74
2022/06/23 08:38:01;;;;;;;9.73;6.60;;;25.90;74.20;;;;;;5091683;28;20046;-73
2022/06/23 08:40:50;;;;;;;8.20;5.15;;;26.10;73.30;;;;;;5078185;28;20090;-73
2022/06/23 08:43:45;;;;;;;8.50;5.97;;;26.40;72.90;;;;;;5092766;28;20036;-74
2022/06/23 08:46:35;;;;;;;8.60;6.30;;;26.50;71.00;;;;;;5073737;28;20109;-74
2022/06/23 08:49:37;;;;;;;7.43;5.88;;;26.60;71.10;;;;;;5074457;28;20053;-74
2022/06/23 08:52:21;;;;;;;6.78;5.88;;;26.80;70.30;;;;;;5059618;28;20053;-74
2022/06/23 08:55:06;;;;;;;10.60;5.78;;;26.50;68.40;;;;;;5074106;28;20040;-75
2022/06/23 08:57:31;;;;;;;9.82;6.25;;;26.60;68.10;;;;;;5081763;28;20429;-75
2022/06/23 09:00:17;;;;;;;8.55;5.57;;;26.60;68.30;;;;;;5083459;28;20093;-74
2022/06/23 09:02:58;;;;;;;6.97;5.03;;;26.90;67.30;;;;;;5066872;28;20043;-74
2022/06/23 09:05:36;;;;;;;9.45;5.63;;;27.00;66.80;;;;;;5092625;28;20370;-75
2022/06/23 09:08:01;;;;;;;6.90;5.03;;;27.00;65.90;;;;;;5094538;28;20047;-75
2022/06/23 09:11:09;;;;;;;8.02;4.82;;;27.20;64.90;;;;;;5094513;28;20438;-73
2022/06/23 09:13:50;;;;;;;9.93;4.50;;;27.40;63.40;;;;;;5094258;28;20058;-75
2022/06/23 09:16:41;;;;;;;9.15;4.72;;;27.60;64.70;;;;;;5093896;28;20497;-75
2022/06/23 09:19:16;;;;;;;5.05;4.55;;;27.80;62.90;;;;;;5094339;28;20093;-75
2022/06/23 09:21:47;;;;;;;5.65;4.20;;;27.80;61.50;;;;;;5093979;28;20040;-75
2022/06/23 09:24:41;;;;;;;9.48;4.93;;;28.00;61.00;;;;;;5093888;28;20072;-74
2022/06/23 09:27:13;;;;;;;7.32;4.47;;;27.90;59.20;;;;;;5086483;28;20048;-74
2022/06/23 09:30:02;;;;;;;6.28;4.22;;;27.90;60.80;;;;;;5084307;28;20115;-75
2022/06/23 09:32:59;;;;;;;6.88;4.88;;;27.80;59.70;;;;;;5091799;28;20119;-73
2022/06/23 09:35:48;;;;;;;7.13;4.28;;;27.60;59.30;;;;;;5091301;28;20185;-74
2022/06/23 09:38:33;;;;;;;4.65;4.13;;;27.80;59.80;;;;;;5094029;28;20044;-74
2022/06/23 09:41:27;;;;;;;6.57;3.90;;;28.00;61.20;;;;;;5093867;28;20127;-74
2022/06/23 09:44:33;;;;;;;7.68;4.25;;;28.10;59.00;;;;;;5087085;28;20111;-75
2022/06/23 09:47:28;;;;;;;5.05;3.90;;;28.00;58.00;;;;;;5093113;28;20493;-74
2022/06/23 09:50:21;;;;;;;5.78;3.30;;;27.80;57.70;;;;;;5085542;28;20032;-73
2022/06/23 09:53:14;;;;;;;5.82;2.42;;;27.80;56.00;;;;;;5084277;28;20482;-74
2022/06/23 09:55:39;;;;;;;;;;;27.80;54.10;;;;;;5084495;28;20056;-73
2022/06/23 09:58:29;;;;;;;7.07;3.25;;;27.70;55.60;;;;;;5078341;28;20006;-74
2022/06/23 10:01:16;;;;;;;6.78;3.50;;;27.80;56.40;;;;;;5077383;28;20050;-74
2022/06/23 10:03:55;;;;;;;4.20;3.10;;;28.00;56.30;;;;;;5085066;28;20038;-73
2022/06/23 10:06:29;;;;;;;4.05;2.55;;;28.10;55.30;;;;;;5073843;28;20044;-74
2022/06/23 10:09:19;;;;;;;5.25;2.50;;;28.00;54.10;;;;;;5073058;28;20081;-74
2022/06/23 10:12:08;;;;;;;4.85;2.75;;;27.90;53.40;;;;;;5072776;28;20152;-74
2022/06/23 10:14:49;;;;;;;5.07;2.35;;;28.10;54.40;;;;;;5072933;28;20044;-72
2022/06/23 10:17:24;;;;;;;4.45;2.70;;;28.30;52.30;;;;;;5071474;28;20040;-73
2022/06/23 10:20:03;;;;;;;5.82;2.30;;;28.10;51.20;;;;;;5073970;28;20039;-74
2022/06/23 10:22:49;;;;;;;2.92;2.38;;;28.10;49.70;;;;;;5090659;28;20051;-73
2022/06/23 10:25:33;;;;;;;4.93;2.70;;;28.00;50.50;;;;;;5092246;28;20044;-73
2022/06/23 10:28:14;;;;;;;4.63;2.45;;;27.90;50.60;;;;;;5089949;28;20138;-74
2022/06/23 10:30:54;;;;;;;4.80;2.40;;;27.80;50.30;;;;;;5092953;28;20040;-74
2022/06/23 10:33:49;;;;;;;5.30;2.63;;;27.90;51.00;;;;;;5073585;28;20119;-74
2022/06/23 10:36:34;;;;;;;5.30;2.72;;;27.80;52.30;;;;;;5072356;28;20040;-74
2022/06/23 10:39:09;;;;;;;5.25;2.40;;;27.80;51.10;;;;;;5073788;28;20039;-74
2022/06/23 10:42:01;;;;;;;5.45;2.72;;;28.00;51.30;;;;;;5082622;28;20078;-73
2022/06/23 10:44:47;;;;;;;5.80;2.60;;;27.90;51.20;;;;;;5070851;28;20045;-74
2022/06/23 10:47:36;;;;;;;6.10;3.13;;;27.90;51.40;;;;;;5072115;28;20072;-74
2022/06/23 10:50:12;;;;;;;5.63;3.40;;;28.00;51.60;;;;;;5072125;28;20036;-74
2022/06/23 10:53:00;;;;;;;5.32;2.80;;;28.00;51.30;;;;;;5072030;28;20379;-74
2022/06/23 10:55:37;;;;;;;6.85;2.83;;;28.10;51.70;;;;;;5071999;28;20040;-74
2022/06/23 10:58:40;;;;;;;5.65;3.10;;;28.00;51.70;;;;;;5071954;28;20048;-75
2022/06/23 11:01:23;;;;;;;4.43;2.20;;;28.00;51.40;;;;;;5072014;28;20480;-74
2022/06/23 11:04:26;;;;;;;5.90;3.40;;;28.10;51.20;;;;;;5070889;28;20052;-74
2022/06/23 11:07:01;;;;;;;;;;;28.10;50.50;;;;;;5072242;28;20044;-75
2022/06/23 11:09:47;;;;;;;7.28;3.05;;;28.00;50.90;;;;;;5070087;28;20401;-74
2022/06/23 11:12:15;;;;;;;5.07;2.92;;;28.10;50.50;;;;;;5070524;28;20036;-74
2022/06/23 11:14:57;;;;;;;3.22;2.50;;;28.20;51.30;;;;;;5071014;28;20056;-74
2022/06/23 11:17:52;;;;;;;7.05;2.40;;;28.30;51.10;;;;;;5070950;28;20048;-75
2022/06/23 11:20:48;;;;;;;6.00;2.53;;;28.50;51.10;;;;;;5050018;28;20139;-75
2022/06/23 11:23:42;;;;;;;6.40;3.47;;;28.60;51.80;;;;;;5069944;28;20048;-75
2022/06/23 11:26:44;;;;;;;9.95;3.08;;;28.70;49.90;;;;;;5071406;28;20119;-73
2022/06/23 11:29:46;;;;;;;4.60;2.63;;;28.40;50.30;;;;;;5071774;28;20037;-75
2022/06/23 11:32:20;;;;;;;6.00;2.70;;;28.50;50.30;;;;;;5071529;28;20275;-75
2022/06/23 11:35:01;;;;;;;7.35;2.33;;;28.60;49.80;;;;;;5071473;28;20040;-75
2022/06/23 11:37:27;;;;;;;7.68;2.40;;;28.80;49.60;;;;;;5070370;28;20430;-74
2022/06/23 11:40:11;;;;;;;4.82;2.60;;;28.80;49.80;;;;;;5070315;28;20051;-74
2022/06/23 11:42:42;;;;;;;5.00;2.60;;;28.80;49.10;;;;;;5071697;28;20041;-74
2022/06/23 11:45:37;;;;;;;6.20;2.60;;;28.70;49.10;;;;;;5071534;28;20037;-74
2022/06/23 11:48:43;;;;;;;5.15;2.22;;;28.80;49.50;;;;;;5071506;28;20040;-74
2022/06/23 11:51:12;;;;;;;6.63;2.08;;;28.90;49.10;;;;;;5072272;28;20132;-74
2022/06/23 11:54:02;;;;;;;5.55;2.08;;;29.20;48.30;;;;;;5057726;28;20033;-74
2022/06/23 11:56:44;;;;;;;6.60;2.78;;;29.40;49.80;;;;;;5076663;28;20497;-74
2022/06/23 11:59:28;;;;;;;6.05;1.90;;;29.50;48.00;;;;;;5084369;28;20485;-75
2022/06/23 12:01:54;;;;;;;2.45;1.80;;;29.50;47.70;;;;;;5093861;28;20040;-75
2022/06/23 12:04:47;;;;;;;3.97;1.90;;;29.50;46.20;;;;;;5093773;28;20485;-78
2022/06/23 12:07:34;;;;;;;2.72;1.77;;;29.60;46.10;;;;;;5074309;28;20033;-81
2022/06/23 12:10:13;;;;;;;4.03;1.60;;;29.60;46.30;;;;;;5076322;28;20440;-80
2022/06/23 12:12:42;;;;;;;3.25;2.15;;;29.60;44.30;;;;;;5075170;28;20047;-80
2022/06/23 12:15:10;;;;;;;4.35;1.88;;;29.60;45.40;;;;;;5075196;28;20040;-81
2022/06/23 12:17:43;;;;;;;2.72;1.85;;;29.50;45.70;;;;;;5060515;28;20513;-80
2022/06/23 12:20:28;;;;;;;3.55;1.77;;;29.60;45.10;;;;;;5079632;28;20051;-80
2022/06/23 12:23:08;;;;;;;5.18;2.08;;;29.70;46.30;;;;;;5063867;28;20043;-81
2022/06/23 12:25:45;;;;;;;4.10;2.38;;;29.70;46.30;;;;;;5079720;28;20048;-80
2022/06/23 12:28:42;;;;;;;3.42;1.80;;;29.60;44.20;;;;;;5077735;28;20033;-79
2022/06/23 12:31:46;;;;;;;5.22;2.20;;;29.60;44.20;;;;;;5059239;28;20044;-79
2022/06/23 12:34:27;;;;;;;3.83;2.10;;;29.60;44.60;;;;;;5046302;28;20113;-79
2022/06/23 12:36:58;;;;;;;6.75;2.25;;;29.60;44.70;;;;;;5077366;28;20063;-80
2022/06/23 12:39:49;;;;;;;2.67;1.83;;;29.80;45.50;;;;;;5077113;28;20036;-79
2022/06/23 12:42:28;;;;;;;3.65;1.83;;;29.80;45.30;;;;;;5077484;28;20278;-80
2022/06/23 12:45:23;;;;;;;3.60;2.20;;;29.80;44.10;;;;;;5079134;28;20051;-81
2022/06/23 12:47:52;;;;;;;3.88;2.55;;;29.90;43.70;;;;;;5076964;28;20083;-81
2022/06/23 12:50:25;;;;;;;4.70;2.05;;;29.90;44.00;;;;;;5077411;28;20036;-79
2022/06/23 12:52:56;;;;;;;3.20;1.90;;;30.00;44.60;;;;;;5076370;28;20036;-80
2022/06/23 12:55:39;;;;;;;3.20;1.80;;;30.00;45.20;;;;;;5076735;28;20059;-81
2022/06/23 12:58:11;;;;;;;5.78;2.00;;;30.00;45.20;;;;;;5077801;28;20098;-80
2022/06/23 13:00:55;;;;;;;2.53;1.75;;;30.10;44.90;;;;;;5077392;28;20501;-80
2022/06/23 13:03:32;;;;;;;3.63;2.15;;;30.20;44.30;;;;;;5076395;28;20041;-80
2022/06/23 13:06:22;;;;;;;3.72;1.95;;;30.10;43.00;;;;;;5076028;28;20048;-81
2022/06/23 13:09:04;;;;;;;2.72;2.30;;;30.10;42.70;;;;;;5077229;28;20124;-80
2022/06/23 13:11:56;;;;;;;5.57;2.30;;;30.10;44.20;;;;;;5078896;28;20040;-81
2022/06/23 13:14:30;;;;;;;7.78;2.05;;;30.20;43.50;;;;;;5076550;28;20040;-81
2022/06/23 13:17:06;;;;;;;6.78;1.80;;;30.40;44.00;;;;;;5076908;28;20040;-80
2022/06/23 13:19:38;;;;;;;6.25;1.75;;;30.40;42.80;;;;;;5076309;28;20052;-81
2022/06/23 13:22:06;;;;;;;5.43;1.90;;;30.60;42.80;;;;;;5081624;22;20525;-71
2022/06/23 13:24:34;;;;;;;4.35;1.80;;;30.60;42.60;;;;;;5072338;28;20146;-71
2022/06/23 13:27:20;;;;;;;3.65;1.73;;;30.60;42.40;;;;;;5071908;28;20049;-71
2022/06/23 13:30:08;;;;;;;7.95;2.20;;;30.70;43.60;;;;;;5073679;28;20036;-71
2022/06/23 13:32:43;;;;;;;3.40;1.85;;;30.70;43.00;;;;;;5072373;28;20059;-71
2022/06/23 13:35:24;;;;;;;3.83;1.90;;;30.90;43.80;;;;;;5072139;28;20515;-71
2022/06/23 13:37:59;;;;;;;3.13;2.07;;;31.00;42.90;;;;;;5073576;28;20094;-71
2022/06/23 13:40:35;;;;;;;3.35;1.77;;;31.00;43.20;;;;;;5056138;28;20040;-72
2022/06/23 13:43:24;;;;;;;5.07;2.10;;;31.00;43.40;;;;;;5073534;28;20398;-71
2022/06/23 13:46:14;;;;;;;3.08;1.95;;;31.00;43.80;;;;;;5071765;28;20052;-71
2022/06/23 13:49:07;;;;;;;3.22;1.83;;;31.00;42.00;;;;;;5072523;28;20044;-72
2022/06/23 13:51:58;;;;;;;5.22;2.38;;;31.00;42.00;;;;;;5072572;28;20429;-71
2022/06/23 13:54:29;;;;;;;3.72;2.13;;;30.90;41.60;;;;;;5073222;28;20437;-71
2022/06/23 13:56:54;;;;;;;4.45;2.30;;;31.00;42.60;;;;;;5072859;28;20144;-71
2022/06/23 13:59:45;;;;;;;3.63;1.92;;;31.00;43.00;;;;;;5071687;28;20124;-71